Time;durP1;ratioP1;P1;durP2;ratioP2;P2;SDS_P1;SDS_P2;PMS_P1;PMS_P2;Temp;Humidity;BMP_temperature;BMP_pressure;BME280_temperature;BME280_humidity;BME280_pressure;Samples;Min_cycle;Max_cycle;Signal;HPM_P1;HPM_P2
2023/08/05 00:00:14;;;;;;;8.80;4.20;;;;;;;18.66;77.25;99539.37;219450;1257;139897;-68
2023/08/05 00:05:38;;;;;;;7.50;3.30;;;;;;;18.67;77.31;99527.63;219079;1258;141338;-69
2023/08/05 00:10:44;;;;;;;3.50;3.20;;;;;;;18.69;77.32;99526.52;217590;1257;139993;-68
2023/08/05 00:15:51;;;;;;;7.70;3.80;;;;;;;18.68;77.39;99523.89;217927;1260;140341;-69
2023/08/05 00:20:56;;;;;;;5.90;4.00;;;;;;;18.60;77.17;99517.00;218930;1258;141182;-69
2023/08/05 00:26:02;;;;;;;5.10;3.50;;;;;;;18.50;77.22;99515.65;218129;1259;139982;-69
2023/08/05 00:31:10;;;;;;;7.00;4.30;;;;;;;18.42;77.50;99507.51;218446;1257;139954;-67
2023/08/05 00:36:13;;;;;;;4.20;3.80;;;;;;;18.42;77.67;99499.02;217688;1258;139854;-68
2023/08/05 00:41:17;;;;;;;5.00;4.40;;;;;;;18.42;77.83;99494.29;218340;1259;140444;-68
2023/08/05 00:46:23;;;;;;;9.30;3.70;;;;;;;18.36;77.62;99501.71;217963;1257;247228;-68
2023/08/05 00:51:27;;;;;;;9.40;3.50;;;;;;;18.22;77.51;99504.45;217977;1259;139972;-67
2023/08/05 00:56:32;;;;;;;5.20;4.20;;;;;;;18.11;77.77;99512.99;217834;1258;139521;-67
2023/08/05 01:01:35;;;;;;;4.80;3.50;;;;;;;18.06;77.84;99509.77;218579;1257;140133;-68
2023/08/05 01:06:40;;;;;;;5.50;4.00;;;;;;;17.98;77.82;99508.28;218415;1260;678954;-68
2023/08/05 01:11:46;;;;;;;5.20;4.00;;;;;;;17.87;77.77;99509.21;218068;1257;140461;-67
2023/08/05 01:16:51;;;;;;;4.00;3.70;;;;;;;17.76;77.71;99511.76;219146;1257;141031;-68
2023/08/05 01:22:15;;;;;;;5.20;4.70;;;;;;;17.64;77.83;99513.13;218489;1257;140413;-67
2023/08/05 01:27:21;;;;;;;9.00;4.60;;;;;;;17.61;78.19;99502.69;218910;1257;140729;-72
2023/08/05 01:32:27;;;;;;;7.80;4.70;;;;;;;17.60;78.30;99497.31;219401;1257;139982;-67
2023/08/05 01:37:31;;;;;;;4.90;4.50;;;;;;;17.57;78.13;99488.16;219619;1257;140705;-69
2023/08/05 01:42:35;;;;;;;5.30;4.80;;;;;;;17.55;78.02;99469.22;219353;1257;139835;-72
2023/08/05 01:47:40;;;;;;;4.90;4.20;;;;;;;17.55;78.10;99457.73;219545;1256;140611;-69
2023/08/05 01:52:44;;;;;;;4.20;3.80;;;;;;;17.47;77.91;99463.32;220398;1259;141359;-72
2023/08/05 01:57:49;;;;;;;5.10;4.60;;;;;;;17.31;77.83;99473.48;218363;1257;140337;-67
2023/08/05 02:02:53;;;;;;;6.30;5.10;;;;;;;17.19;78.20;99479.24;218343;1257;139572;-67
2023/08/05 02:07:59;;;;;;;9.00;4.90;;;;;;;17.12;78.55;99479.96;219531;1257;140278;-68
2023/08/05 02:13:03;;;;;;;4.90;4.50;;;;;;;17.16;79.09;99475.39;218107;1257;139654;-68
2023/08/05 02:18:09;;;;;;;4.80;4.50;;;;;;;17.23;79.36;99466.48;218299;1259;139163;-68
2023/08/05 02:23:15;;;;;;;5.30;4.80;;;;;;;17.24;79.21;99466.64;218120;1260;139623;-71
2023/08/05 02:28:20;;;;;;;7.20;4.30;;;;;;;17.18;79.22;99466.52;218336;1259;139970;-68
2023/08/05 02:33:25;;;;;;;4.80;4.50;;;;;;;17.15;79.50;99468.65;218142;1261;140100;-67
2023/08/05 02:38:29;;;;;;;6.10;5.00;;;;;;;17.13;79.34;99468.79;217841;1261;139543;-67
2023/08/05 02:43:34;;;;;;;8.50;4.80;;;;;;;17.12;79.51;99457.98;218668;1257;140570;-67
2023/08/05 02:48:40;;;;;;;4.70;4.30;;;;;;;17.15;79.65;99459.29;218660;1259;140640;-68
2023/08/05 02:53:44;;;;;;;6.10;4.50;;;;;;;17.14;79.57;99453.05;218822;1257;139919;-69
2023/08/05 02:58:48;;;;;;;5.50;4.70;;;;;;;17.07;79.25;99456.42;218804;1257;141573;-67
2023/08/05 03:03:52;;;;;;;6.70;5.10;;;;;;;16.95;79.43;99465.20;217863;1257;139926;-67
2023/08/05 03:08:57;;;;;;;10.60;4.70;;;;;;;16.95;79.76;99458.79;219496;1256;139894;-67
2023/08/05 03:14:02;;;;;;;11.00;4.90;;;;;;;17.01;80.03;99450.70;219505;1257;140070;-67
2023/08/05 03:19:07;;;;;;;4.90;4.60;;;;;;;17.10;80.12;99454.90;219576;1256;140279;-68
2023/08/05 03:24:11;;;;;;;13.80;4.70;;;;;;;17.17;80.09;99458.30;217715;1257;140459;-69
2023/08/05 03:29:16;;;;;;;4.00;3.70;;;;;;;17.24;80.20;99455.70;219936;1256;139965;-68
2023/08/05 03:34:24;;;;;;;5.60;3.80;;;;;;;17.29;80.46;99460.98;220275;1258;139754;-69
2023/08/05 03:39:29;;;;;;;5.30;3.70;;;;;;;17.33;80.36;99465.10;220206;1257;140307;-69
2023/08/05 03:44:33;;;;;;;7.30;4.40;;;;;;;17.39;80.25;99472.64;220178;1257;139721;-69
2023/08/05 03:49:39;;;;;;;4.00;3.60;;;;;;;17.42;80.20;99476.22;218408;1259;139926;-70
2023/08/05 03:54:45;;;;;;;7.10;3.90;;;;;;;17.44;80.33;99483.29;218659;1258;141634;-69
2023/08/05 03:59:50;;;;;;;4.80;4.40;;;;;;;17.45;80.35;99485.91;217637;1260;139502;-68
2023/08/05 04:04:55;;;;;;;5.40;4.00;;;;;;;17.47;80.46;99488.75;218885;1258;141444;-67
2023/08/05 04:10:00;;;;;;;4.30;4.00;;;;;;;17.51;80.34;99488.92;218572;1257;140467;-68
2023/08/05 04:15:06;;;;;;;8.30;4.10;;;;;;;17.55;80.39;99480.54;218825;1258;142264;-69
2023/08/05 04:20:12;;;;;;;11.90;4.60;;;;;;;17.59;80.41;99475.86;218991;1257;140362;-69
2023/08/05 04:25:18;;;;;;;7.20;5.60;;;;;;;17.64;80.57;99473.23;218070;1257;139977;-68
2023/08/05 04:30:22;;;;;;;4.70;4.30;;;;;;;17.67;80.53;99464.80;218573;1257;139720;-68
2023/08/05 04:35:26;;;;;;;23.00;5.30;;;;;;;17.69;80.54;99467.64;218450;1257;140118;-68
2023/08/05 04:40:31;;;;;;;5.40;4.90;;;;;;;17.72;80.50;99473.46;218972;1257;140185;-68
2023/08/05 04:45:36;;;;;;;5.50;4.60;;;;;;;17.76;80.54;99480.37;219088;1257;139690;-69
2023/08/05 04:50:40;;;;;;;6.00;4.90;;;;;;;17.77;80.57;99492.96;217854;1261;139657;-68
2023/08/05 04:55:45;;;;;;;7.40;4.70;;;;;;;17.81;80.55;99492.12;218893;1257;140995;-70
2023/08/05 05:00:50;;;;;;;5.90;3.90;;;;;;;17.85;80.72;99496.39;218979;1262;150998;-69
2023/08/05 05:05:55;;;;;;;5.50;5.00;;;;;;;17.88;80.73;99492.85;218014;1260;140972;-69
2023/08/05 05:11:01;;;;;;;14.10;5.50;;;;;;;17.88;80.67;99483.90;218811;1259;140507;-69
2023/08/05 05:16:06;;;;;;;7.70;6.00;;;;;;;17.88;80.60;99487.08;219707;1258;141251;-68
2023/08/05 05:21:10;;;;;;;10.40;5.30;;;;;;;17.90;80.51;99495.11;219400;1262;141829;-66
2023/08/05 05:26:15;;;;;;;12.50;5.80;;;;;;;17.91;80.71;99502.30;219997;1257;140347;-68
2023/08/05 05:31:19;;;;;;;6.10;5.50;;;;;;;17.93;80.77;99503.70;220109;1257;140918;-68
2023/08/05 05:36:27;;;;;;;7.00;5.80;;;;;;;17.94;80.84;99496.40;219262;1258;140469;-67
2023/08/05 05:41:32;;;;;;;7.50;5.50;;;;;;;17.94;80.80;99482.86;219589;1260;140194;-66
2023/08/05 05:46:38;;;;;;;6.40;5.60;;;;;;;17.94;81.03;99485.93;218672;1257;139687;-66
2023/08/05 05:51:45;;;;;;;6.20;5.60;;;;;;;17.93;81.13;99486.06;218819;1257;139975;-66
2023/08/05 05:56:51;;;;;;;9.30;6.00;;;;;;;17.92;81.12;99477.92;218799;1257;140322;-66
2023/08/05 06:01:56;;;;;;;8.70;5.50;;;;;;;17.93;81.10;99474.30;218771;1257;139652;-67
2023/08/05 06:07:02;;;;;;;6.80;5.50;;;;;;;17.95;81.23;99468.77;218656;1258;140208;-68
2023/08/05 06:12:10;;;;;;;7.10;6.30;;;;;;;18.00;81.33;99471.57;219081;1262;141726;-67
2023/08/05 06:17:15;;;;;;;8.20;5.30;;;;;;;18.08;81.42;99491.84;217873;1262;140352;-69
2023/08/05 06:22:20;;;;;;;7.00;5.90;;;;;;;18.14;81.61;99503.80;218920;1262;139775;-68
2023/08/05 06:27:24;;;;;;;7.40;6.80;;;;;;;18.18;81.47;99506.98;217713;1260;140733;-72
2023/08/05 06:32:30;;;;;;;6.70;6.10;;;;;;;18.23;81.54;99508.48;217992;1257;139914;-74
2023/08/05 06:37:36;;;;;;;7.60;6.80;;;;;;;18.29;81.62;99497.55;218014;1262;140292;-71
2023/08/05 06:42:44;;;;;;;6.60;5.70;;;;;;;18.35;81.77;99493.67;218247;1261;139699;-72
2023/08/05 06:47:49;;;;;;;7.70;6.00;;;;;;;18.42;81.69;99494.23;218613;1257;140592;-72
2023/08/05 06:52:57;;;;;;;5.70;5.30;;;;;;;18.46;81.72;99498.91;218349;1262;160380;-70
2023/08/05 06:58:04;;;;;;;5.10;4.70;;;;;;;18.50;81.70;99491.80;218957;1261;141256;-68
2023/08/05 07:03:09;;;;;;;7.80;5.40;;;;;;;18.56;81.56;99491.29;219433;1258;141340;-69
2023/08/05 07:08:15;;;;;;;5.70;5.20;;;;;;;18.55;81.35;99490.48;218378;1261;142150;-68
2023/08/05 07:13:20;;;;;;;16.10;4.90;;;;;;;18.55;81.03;99495.02;219151;1260;139974;-69
2023/08/05 07:18:23;;;;;;;4.70;4.30;;;;;;;18.52;81.10;99489.29;219977;1257;139893;-70
2023/08/05 07:23:29;;;;;;;7.00;4.80;;;;;;;18.50;81.11;99491.30;219475;1257;140682;-71
2023/08/05 07:28:35;;;;;;;;;;;;;;;18.51;80.87;99486.98;218790;1257;139541;-71
2023/08/05 07:33:41;;;;;;;5.00;4.00;;;;;;;18.55;80.86;99476.57;219722;1257;127274;-71
2023/08/05 07:38:46;;;;;;;4.70;4.30;;;;;;;18.62;80.94;99471.13;218118;1262;139949;-70
2023/08/05 07:43:51;;;;;;;6.00;5.50;;;;;;;18.70;80.72;99469.42;219456;1256;139827;-70
2023/08/05 07:49:00;;;;;;;6.40;5.70;;;;;;;18.77;80.84;99465.59;218470;1258;140504;-71
2023/08/05 07:54:05;;;;;;;7.60;5.90;;;;;;;18.87;80.94;99464.20;217702;1260;139652;-70
2023/08/05 07:59:12;;;;;;;7.30;5.50;;;;;;;18.97;80.83;99455.36;218188;1257;140979;-69
2023/08/05 08:04:17;;;;;;;6.20;5.70;;;;;;;19.08;80.60;99439.51;218493;1260;139682;-68
2023/08/05 08:09:22;;;;;;;7.10;6.40;;;;;;;19.21;80.67;99425.02;218290;1260;139692;-67
2023/08/05 08:14:27;;;;;;;8.20;5.60;;;;;;;19.35;80.51;99413.33;217930;1257;139692;-71
2023/08/05 08:19:33;;;;;;;5.90;5.40;;;;;;;19.53;80.45;99404.09;218337;1263;140025;-72
2023/08/05 08:24:38;;;;;;;7.10;6.50;;;;;;;19.66;80.26;99388.67;218184;1257;139621;-70
2023/08/05 08:29:43;;;;;;;6.50;5.90;;;;;;;19.81;79.97;99365.86;218443;1258;141710;-70
2023/08/05 08:34:48;;;;;;;8.30;6.00;;;;;;;19.89;79.55;99346.90;218150;1257;141005;-71
2023/08/05 08:39:55;;;;;;;6.60;6.10;;;;;;;19.98;79.71;99347.08;218027;1257;140863;-68
2023/08/05 08:45:01;;;;;;;6.50;6.00;;;;;;;20.12;80.04;99340.52;218959;1257;140081;-69
2023/08/05 08:50:07;;;;;;;7.70;7.00;;;;;;;20.30;79.83;99342.45;218174;1260;139623;-69
2023/08/05 08:55:13;;;;;;;25.20;7.60;;;;;;;20.33;79.24;99365.24;218741;1260;140854;-69
2023/08/05 09:00:18;;;;;;;6.00;4.90;;;;;;;20.25;79.17;99378.61;218805;1257;140198;-67
2023/08/05 09:05:25;;;;;;;5.90;5.30;;;;;;;20.18;78.78;99381.78;218050;1260;139652;-69
2023/08/05 09:10:30;;;;;;;6.20;5.40;;;;;;;20.18;79.02;99369.36;219587;1257;140369;-70
2023/08/05 09:15:38;;;;;;;10.70;5.60;;;;;;;20.29;79.14;99376.65;219608;1257;140317;-71
2023/08/05 09:20:42;;;;;;;6.10;5.10;;;;;;;20.35;78.99;99379.44;219935;1257;142457;-69
2023/08/05 09:25:48;;;;;;;10.80;7.10;;;;;;;20.48;79.01;99359.27;220182;1257;141043;-70
2023/08/05 09:30:53;;;;;;;6.30;5.80;;;;;;;20.75;78.82;99351.19;220277;1257;139786;-71
2023/08/05 09:36:11;;;;;;;11.00;5.40;;;;;;;21.07;78.24;99351.53;220277;1257;140234;-70
2023/08/05 09:41:28;;;;;;;6.60;4.90;;;;;;;21.48;77.90;99344.52;219725;1257;140484;-70
2023/08/05 09:46:38;;;;;;;;;;;;;;;21.97;77.32;99352.89;218543;1258;140140;-70
2023/08/05 09:51:45;;;;;;;4.70;4.40;;;;;;;22.30;76.51;99365.87;218800;1258;126080;-70
2023/08/05 09:56:51;;;;;;;5.30;3.90;;;;;;;22.52;75.70;99364.44;217971;1257;140923;-70
2023/08/05 10:01:59;;;;;;;5.00;3.80;;;;;;;22.59;75.08;99361.70;218622;1256;140248;-69
2023/08/05 10:07:08;;;;;;;4.30;4.00;;;;;;;22.59;74.24;99376.63;218030;1257;140044;-68
2023/08/05 10:12:13;;;;;;;5.40;4.90;;;;;;;22.56;73.95;99373.45;218304;1257;140540;-68
2023/08/05 10:17:21;;;;;;;4.40;4.00;;;;;;;22.58;73.23;99378.81;217983;1257;236096;-69
2023/08/05 10:22:26;;;;;;;3.50;3.20;;;;;;;22.66;73.16;99386.21;218235;1257;139478;-69
2023/08/05 10:27:35;;;;;;;7.10;4.10;;;;;;;22.75;73.17;99374.67;218531;1257;140417;-68
2023/08/05 10:32:54;;;;;;;5.30;3.50;;;;;;;22.85;72.31;99374.64;217604;1260;140058;-68
2023/08/05 10:38:09;;;;;;;3.80;3.50;;;;;;;22.79;71.82;99372.98;218921;1257;139486;-67
2023/08/05 10:43:30;;;;;;;5.20;4.00;;;;;;;22.73;71.72;99367.02;217971;1258;141153;-67
2023/08/05 10:48:55;;;;;;;4.20;3.80;;;;;;;22.59;71.11;99359.38;218388;1257;140260;-67
2023/08/05 10:54:00;;;;;;;6.40;3.90;;;;;;;22.48;71.10;99356.42;219182;1256;140339;-67
2023/08/05 10:59:08;;;;;;;5.40;4.00;;;;;;;22.31;71.11;99357.55;217904;1257;140806;-67
2023/08/05 11:04:31;;;;;;;6.30;3.50;;;;;;;22.19;71.05;99349.75;217772;1257;139941;-68
2023/08/05 11:09:35;;;;;;;6.70;3.80;;;;;;;22.06;71.11;99353.27;219092;1257;139395;-69
2023/08/05 11:14:41;;;;;;;4.00;3.60;;;;;;;21.95;71.28;99346.12;220149;1256;141394;-69
2023/08/05 11:19:52;;;;;;;3.80;3.50;;;;;;;21.80;70.98;99329.34;219622;1257;141794;-69
2023/08/05 11:25:01;;;;;;;4.70;4.20;;;;;;;21.71;71.52;99323.63;219951;1257;139409;-69
2023/08/05 11:30:15;;;;;;;5.40;3.90;;;;;;;21.55;71.19;99302.88;219178;1257;139850;-68
2023/08/05 11:35:19;;;;;;;8.10;4.30;;;;;;;21.43;71.53;99303.40;218444;1257;139950;-68
2023/08/05 11:40:24;;;;;;;4.70;4.30;;;;;;;21.35;71.46;99297.37;219214;1257;139416;-65
2023/08/05 11:45:28;;;;;;;4.50;4.20;;;;;;;21.27;71.65;99292.34;218427;1257;139688;-65
2023/08/05 11:50:37;;;;;;;4.90;4.50;;;;;;;21.21;71.74;99280.86;219302;1258;142917;-66
2023/08/05 11:55:44;;;;;;;5.10;4.60;;;;;;;21.15;71.94;99273.71;218153;1257;140226;-65
2023/08/05 12:00:52;;;;;;;4.70;4.00;;;;;;;21.12;72.05;99271.21;217643;1257;140144;-66
2023/08/05 12:06:01;;;;;;;4.10;3.80;;;;;;;21.14;72.32;99265.84;218308;1257;140765;-65
2023/08/05 12:11:04;;;;;;;5.60;4.40;;;;;;;21.19;72.46;99268.95;217822;1257;140801;-65
2023/08/05 12:16:17;;;;;;;7.40;4.00;;;;;;;21.26;72.55;99274.54;218240;1257;140807;-66
2023/08/05 12:21:31;;;;;;;5.20;4.70;;;;;;;21.45;72.70;99268.42;217969;1257;140956;-65
2023/08/05 12:26:39;;;;;;;4.80;4.40;;;;;;;21.50;72.44;99255.30;217945;1257;139722;-67
2023/08/05 12:31:46;;;;;;;7.10;4.80;;;;;;;21.59;72.48;99249.98;217996;1257;140149;-65
2023/08/05 12:36:51;;;;;;;4.20;3.80;;;;;;;21.65;72.31;99259.84;219593;1257;139835;-66
2023/08/05 12:41:56;;;;;;;4.60;4.00;;;;;;;21.61;72.11;99265.30;219345;1257;139445;-67
2023/08/05 12:47:00;;;;;;;4.60;4.20;;;;;;;21.53;72.08;99267.27;218429;1257;140056;-68
2023/08/05 12:52:05;;;;;;;4.50;4.10;;;;;;;21.48;72.20;99258.61;219113;1257;141122;-68
2023/08/05 12:57:10;;;;;;;5.60;4.50;;;;;;;21.41;72.20;99255.58;219099;1258;140598;-66
2023/08/05 13:02:21;;;;;;;4.10;3.80;;;;;;;21.34;72.12;99260.27;218738;1258;140572;-71
2023/08/05 13:07:49;;;;;;;5.50;4.10;;;;;;;21.31;72.44;99259.47;219634;1257;489343;-70
2023/08/05 13:12:53;;;;;;;4.10;3.80;;;;;;;21.24;72.33;99248.95;219725;1257;139452;-75
2023/08/05 13:17:58;;;;;;;5.10;4.60;;;;;;;21.16;72.12;99240.36;218988;1257;139738;-67
2023/08/05 13:23:03;;;;;;;4.60;4.20;;;;;;;21.09;72.14;99239.02;219430;1257;140068;-70
2023/08/05 13:28:08;;;;;;;4.80;4.30;;;;;;;21.02;72.39;99232.67;219328;1257;141668;-67
2023/08/05 13:33:13;;;;;;;5.50;4.80;;;;;;;20.96;72.45;99232.55;218617;1257;210261;-68
2023/08/05 13:38:20;;;;;;;4.60;4.20;;;;;;;20.91;72.43;99218.20;218905;1256;140437;-68
2023/08/05 13:43:24;;;;;;;5.10;4.60;;;;;;;20.83;72.41;99218.68;218420;1258;141641;-68
2023/08/05 13:48:32;;;;;;;4.50;4.20;;;;;;;20.78;72.52;99218.52;218930;1256;139564;-67
2023/08/05 13:53:37;;;;;;;4.10;3.80;;;;;;;20.75;72.62;99217.72;220297;1256;140382;-70
2023/08/05 13:58:47;;;;;;;5.00;3.90;;;;;;;20.71;72.59;99217.98;220158;1257;140087;-69
2023/08/05 14:03:51;;;;;;;4.90;3.80;;;;;;;20.65;72.62;99220.29;220293;1256;142169;-70
2023/08/05 14:08:56;;;;;;;5.80;3.30;;;;;;;20.57;72.66;99213.47;220028;1258;139950;-68
2023/08/05 14:14:07;;;;;;;4.80;3.10;;;;;;;20.58;72.81;99221.18;220070;1256;140625;-64
2023/08/05 14:19:55;;;;;;;7.60;3.80;;;;;;;20.56;72.74;99211.65;220285;1256;140974;-68
2023/08/05 14:24:59;;;;;;;4.60;4.20;;;;;;;20.52;72.84;99202.23;220077;1257;140374;-67
2023/08/05 14:30:04;;;;;;;4.30;3.60;;;;;;;20.44;73.07;99197.41;220181;1256;139666;-67
2023/08/05 14:35:32;;;;;;;3.90;3.50;;;;;;;20.50;73.29;99195.05;220311;1256;140141;-67
2023/08/05 14:40:36;;;;;;;4.70;4.40;;;;;;;20.52;73.34;99192.58;220224;1257;141064;-65
2023/08/05 14:50:30;;;;;;;4.90;4.50;;;;;;;20.48;73.83;99198.22;213740;1298;659502;-65
2023/08/05 14:55:35;;;;;;;6.80;5.50;;;;;;;20.42;73.93;99204.97;218698;1269;139044;-65
2023/08/05 15:00:40;;;;;;;5.80;5.30;;;;;;;20.26;74.28;99203.71;215802;1269;475558;-66
2023/08/05 15:05:44;;;;;;;5.50;4.90;;;;;;;20.19;74.91;99197.29;219161;1267;139836;-67
2023/08/05 15:10:58;;;;;;;7.20;4.80;;;;;;;20.13;75.40;99191.89;219181;1268;139839;-68
2023/08/05 15:16:03;;;;;;;5.80;5.40;;;;;;;20.05;75.79;99180.14;216639;1268;139124;-69
2023/08/05 15:21:07;;;;;;;8.50;5.20;;;;;;;19.95;76.05;99178.70;217545;1269;139129;-68
2023/08/05 15:26:11;;;;;;;6.10;5.60;;;;;;;19.88;76.63;99173.10;216641;1266;139454;-67
2023/08/05 15:31:17;;;;;;;6.00;5.50;;;;;;;19.80;76.96;99168.70;217510;1266;140655;-68
2023/08/05 15:36:21;;;;;;;6.10;5.70;;;;;;;19.75;77.40;99154.73;216341;1268;139632;-76
2023/08/05 15:41:26;;;;;;;6.60;5.50;;;;;;;19.70;77.75;99154.09;216853;1266;139225;-69
2023/08/05 15:46:31;;;;;;;6.80;4.70;;;;;;;19.58;78.11;99155.85;217140;1269;138108;-73
2023/08/05 15:51:35;;;;;;;5.10;4.60;;;;;;;19.43;78.16;99164.59;216728;1268;140013;-67
2023/08/05 15:56:40;;;;;;;4.30;3.80;;;;;;;19.29;78.55;99167.05;217423;1269;139159;-71
2023/08/05 16:01:44;;;;;;;5.70;4.40;;;;;;;19.21;78.87;99158.33;217025;1269;139730;-69
2023/08/05 16:06:50;;;;;;;7.10;5.10;;;;;;;19.16;79.25;99157.58;216490;1269;140542;-68
2023/08/05 16:11:54;;;;;;;5.60;4.90;;;;;;;19.14;79.62;99154.58;216465;1269;140203;-69
2023/08/05 16:16:58;;;;;;;5.90;5.10;;;;;;;19.10;79.82;99151.41;216665;1269;139418;-66
2023/08/05 16:22:02;;;;;;;6.20;5.60;;;;;;;19.03;80.06;99142.77;217103;1269;139342;-66
2023/08/05 16:27:07;;;;;;;4.90;4.30;;;;;;;18.94;80.25;99141.42;217994;1269;139711;-70
2023/08/05 16:32:12;;;;;;;7.10;5.20;;;;;;;18.86;80.60;99135.83;217583;1259;140467;-69
2023/08/05 16:37:16;;;;;;;5.10;4.70;;;;;;;18.79;80.82;99129.16;217669;1262;139078;-66
2023/08/05 16:42:20;;;;;;;4.30;4.00;;;;;;;18.74;81.01;99128.90;219743;1259;139839;-67
2023/08/05 16:47:24;;;;;;;6.80;4.00;;;;;;;18.67;81.13;99122.52;219385;1258;139499;-67
2023/08/05 16:52:30;;;;;;;3.30;3.10;;;;;;;18.61;81.41;99126.33;219014;1262;140620;-66
2023/08/05 16:57:34;;;;;;;4.70;4.10;;;;;;;18.52;81.51;99132.40;220076;1258;140209;-67
2023/08/05 17:02:38;;;;;;;3.60;3.40;;;;;;;18.46;81.94;99138.52;219219;1260;139729;-67
2023/08/05 17:07:44;;;;;;;4.40;4.10;;;;;;;18.43;82.12;99126.75;218635;1260;139856;-66
2023/08/05 17:12:49;;;;;;;5.60;4.30;;;;;;;18.39;82.30;99123.91;218814;1260;140088;-67
2023/08/05 17:17:52;;;;;;;3.70;3.50;;;;;;;18.34;82.60;99116.59;217731;1260;139901;-74
2023/08/05 17:22:56;;;;;;;4.20;3.90;;;;;;;18.32;82.78;99101.59;219705;1259;140450;-70
2023/08/05 17:28:00;;;;;;;6.20;4.00;;;;;;;18.28;83.18;99103.10;218873;1260;141206;-66
2023/08/05 17:33:04;;;;;;;5.00;4.50;;;;;;;18.25;83.29;99114.23;217772;1260;140162;-70
2023/08/05 17:38:09;;;;;;;7.10;5.10;;;;;;;18.22;83.53;99117.20;217772;1260;139998;-66
2023/08/05 17:43:13;;;;;;;4.40;4.10;;;;;;;18.18;83.82;99106.91;217439;1260;140368;-66
2023/08/05 17:48:19;;;;;;;4.50;4.10;;;;;;;18.14;84.05;99099.27;217261;1260;139953;-67
2023/08/05 17:53:22;;;;;;;4.20;3.90;;;;;;;18.11;84.53;99086.08;217633;1260;140586;-67
2023/08/05 17:58:28;;;;;;;4.90;4.40;;;;;;;18.07;84.67;99071.62;217287;1260;140175;-67
2023/08/05 18:03:33;;;;;;;3.00;2.80;;;;;;;18.06;84.82;99092.20;217111;1263;140212;-66
2023/08/05 18:08:42;;;;;;;3.80;3.60;;;;;;;18.00;84.97;99099.44;217398;1260;139326;-70
2023/08/05 18:13:47;;;;;;;5.20;4.70;;;;;;;17.96;85.18;99099.02;217925;1260;140279;-68
2023/08/05 18:18:53;;;;;;;5.20;4.40;;;;;;;17.92;85.31;99099.48;218325;1262;139365;-67
2023/08/05 18:23:58;;;;;;;5.50;5.10;;;;;;;17.88;85.64;99088.95;218644;1264;139414;-69
2023/08/05 18:29:16;;;;;;;4.90;4.40;;;;;;;17.88;85.82;99093.16;218991;1260;141033;-75
2023/08/05 18:34:38;;;;;;;5.30;4.90;;;;;;;17.91;86.02;99078.70;219292;1261;140335;-71
2023/08/05 18:39:51;;;;;;;6.90;5.70;;;;;;;17.90;85.94;99069.02;217983;1260;141428;-75
2023/08/05 18:44:56;;;;;;;9.00;8.20;;;;;;;17.90;86.06;99052.77;219922;1260;139931;-70
2023/08/05 18:50:01;;;;;;;8.00;7.40;;;;;;;17.91;86.30;99050.34;220350;1257;139706;-68
2023/08/05 18:55:06;;;;;;;8.10;7.60;;;;;;;17.91;86.43;99054.52;220173;1260;139794;-68
2023/08/05 19:00:29;;;;;;;8.60;7.90;;;;;;;17.94;86.64;99062.63;218357;1256;139440;-68
2023/08/05 19:05:35;;;;;;;7.90;7.30;;;;;;;17.95;86.73;99059.98;218449;1257;139620;-67
2023/08/05 19:11:05;;;;;;;8.20;7.10;;;;;;;17.96;86.84;99063.92;218142;1257;140464;-66
2023/08/05 19:16:13;;;;;;;10.20;9.20;;;;;;;17.95;86.99;99054.14;217542;1260;139802;-69
2023/08/05 19:21:17;;;;;;;10.60;9.60;;;;;;;17.95;87.22;99045.19;218151;1261;140051;-69
2023/08/05 19:26:39;;;;;;;9.90;9.20;;;;;;;17.93;87.35;99014.80;218398;1260;140540;-66
2023/08/05 19:32:06;;;;;;;11.60;10.50;;;;;;;17.93;87.47;99010.80;217944;1260;139557;-65
2023/08/05 19:37:49;;;;;;;9.90;8.90;;;;;;;17.91;87.64;99006.17;217921;1260;140042;-65
2023/08/05 19:43:15;;;;;;;9.60;8.60;;;;;;;17.91;87.99;99005.96;217502;1257;140368;-66
2023/08/05 19:48:46;;;;;;;10.80;9.90;;;;;;;17.91;88.01;99011.13;217968;1261;141052;-65
2023/08/05 19:53:59;;;;;;;11.30;10.20;;;;;;;17.90;88.15;99022.38;218038;1260;139638;-64
2023/08/05 19:59:08;;;;;;;11.00;10.00;;;;;;;17.89;88.36;99020.28;218539;1262;140290;-67
2023/08/05 20:04:27;;;;;;;9.80;8.80;;;;;;;17.89;88.34;99004.32;218359;1257;140608;-66
2023/08/05 20:09:39;;;;;;;9.90;9.10;;;;;;;17.86;88.58;98997.15;217703;1256;140090;-66
2023/08/05 20:14:45;;;;;;;9.40;8.50;;;;;;;17.85;88.67;98991.17;218467;1257;140066;-67
2023/08/05 20:19:54;;;;;;;11.30;10.30;;;;;;;17.85;88.87;98978.67;218448;1256;139775;-65
2023/08/05 20:25:08;;;;;;;10.70;9.80;;;;;;;17.85;89.07;98981.27;218848;1257;151592;-69
2023/08/05 20:30:20;;;;;;;12.40;11.10;;;;;;;17.86;89.11;98981.51;220227;1256;140341;-68
2023/08/05 20:35:34;;;;;;;12.50;10.60;;;;;;;17.89;89.15;98992.83;220423;1257;140147;-65
2023/08/05 20:40:39;;;;;;;11.00;9.70;;;;;;;17.92;89.08;98967.27;219589;1257;140147;-67
2023/08/05 20:45:53;;;;;;;13.60;10.00;;;;;;;17.93;89.10;98937.30;218736;1257;244127;-67
2023/08/05 20:51:11;;;;;;;13.00;11.60;;;;;;;17.92;89.13;98945.11;219344;1257;139523;-65
2023/08/05 20:56:27;;;;;;;12.80;11.70;;;;;;;17.92;89.15;98942.84;218789;1256;140882;-65
2023/08/05 21:01:36;;;;;;;12.30;11.00;;;;;;;17.89;89.17;98925.43;218400;1260;140012;-65
2023/08/05 21:06:46;;;;;;;14.10;12.70;;;;;;;17.85;89.26;98906.84;218450;1257;140436;-68
2023/08/05 21:11:52;;;;;;;12.10;10.90;;;;;;;17.84;89.52;98918.40;219130;1260;140325;-65
2023/08/05 21:17:02;;;;;;;12.80;11.60;;;;;;;17.83;89.72;98918.86;217936;1257;141023;-65
2023/08/05 21:22:13;;;;;;;11.20;10.10;;;;;;;17.83;89.84;98907.70;217466;1258;140622;-65
2023/08/05 21:27:22;;;;;;;11.50;10.40;;;;;;;17.80;89.79;98904.57;218065;1260;140224;-64
2023/08/05 21:32:32;;;;;;;11.20;10.30;;;;;;;17.77;89.97;98904.46;217696;1260;139636;-66
2023/08/05 21:37:38;;;;;;;9.10;8.20;;;;;;;17.76;90.04;98910.10;218438;1260;141695;-69
2023/08/05 21:42:46;;;;;;;10.00;9.00;;;;;;;17.73;89.99;98911.48;217749;1258;139444;-66
2023/08/05 21:47:54;;;;;;;10.40;9.50;;;;;;;17.71;90.03;98895.39;219162;1257;139542;-65
2023/08/05 21:53:00;;;;;;;9.30;8.50;;;;;;;17.68;90.15;98872.18;218386;1257;139425;-66
2023/08/05 21:58:08;;;;;;;11.00;10.00;;;;;;;17.68;90.27;98852.45;217505;1257;140421;-65
2023/08/05 22:03:17;;;;;;;10.90;9.90;;;;;;;17.67;90.28;98832.76;218612;1260;142231;-69
2023/08/05 22:08:23;;;;;;;9.60;8.70;;;;;;;17.65;90.25;98816.77;218865;1257;139522;-69
2023/08/05 22:13:28;;;;;;;8.90;8.20;;;;;;;17.62;90.29;98815.40;218201;1258;139359;-72
2023/08/05 22:18:37;;;;;;;11.20;10.20;;;;;;;17.60;90.34;98818.04;219121;1256;140122;-70
2023/08/05 22:23:44;;;;;;;10.30;9.30;;;;;;;17.58;90.42;98810.48;219312;1256;140096;-70
2023/08/05 22:28:52;;;;;;;10.40;9.40;;;;;;;17.59;90.64;98807.60;220259;1258;139926;-67
2023/08/05 22:33:56;;;;;;;11.00;10.10;;;;;;;17.60;90.51;98813.73;220214;1256;140198;-68
2023/08/05 22:39:01;;;;;;;11.50;10.50;;;;;;;17.60;90.57;98815.88;218785;1257;139703;-67
2023/08/05 22:44:08;;;;;;;9.10;8.30;;;;;;;17.60;90.47;98811.09;220026;1257;140867;-67
2023/08/05 22:49:18;;;;;;;10.00;9.20;;;;;;;17.60;90.79;98811.03;219280;1257;140103;-67
2023/08/05 22:54:23;;;;;;;12.70;10.70;;;;;;;17.62;90.77;98829.91;219746;1256;140188;-66
2023/08/05 22:59:28;;;;;;;11.40;10.20;;;;;;;17.63;90.87;98844.55;218714;1257;140815;-66
2023/08/05 23:04:33;;;;;;;13.80;12.40;;;;;;;17.64;90.90;98836.24;218536;1257;141514;-67
2023/08/05 23:09:39;;;;;;;10.60;9.50;;;;;;;17.64;91.18;98824.17;218640;1257;140362;-68
2023/08/05 23:14:45;;;;;;;10.80;9.80;;;;;;;17.64;91.21;98823.09;217987;1256;140605;-66
2023/08/05 23:19:51;;;;;;;12.40;11.30;;;;;;;17.61;91.28;98803.56;218142;1257;140493;-67
2023/08/05 23:24:55;;;;;;;12.20;11.00;;;;;;;17.60;91.51;98781.67;217876;1257;140480;-67
2023/08/05 23:30:01;;;;;;;13.90;12.50;;;;;;;17.58;91.66;98776.04;217972;1256;139852;-67